Time;durP1;ratioP1;P1;durP2;ratioP2;P2;SDS_P1;SDS_P2;PMS_P1;PMS_P2;Temp;Humidity;BMP_temperature;BMP_pressure;BME280_temperature;BME280_humidity;BME280_pressure;Samples;Min_cycle;Max_cycle;Signal;HPM_P1;HPM_P2
2022/06/03 04:23:03;;;;;;;22.17;12.00;;;;;;;14.01;70.57;100229.84;5091875;28;20586;-78
2022/06/03 04:25:50;;;;;;;6.72;4.30;;;;;;;13.95;70.55;100222.59;5092356;28;21675;-79
2022/06/03 04:28:43;;;;;;;8.60;4.97;;;;;;;14.01;70.12;100219.13;5092530;28;20020;-78
2022/06/03 04:31:46;;;;;;;6.95;3.78;;;;;;;14.05;70.36;100214.22;5090776;28;20649;-78
2022/06/03 04:34:13;;;;;;;6.15;4.55;;;;;;;13.95;70.65;100222.59;5091835;28;20032;-78
2022/06/03 04:36:44;;;;;;;6.28;3.95;;;;;;;14.04;70.18;100224.09;5089843;28;20065;-78
2022/06/03 04:39:47;;;;;;;7.05;4.78;;;;;;;14.07;69.97;100226.38;5089500;28;20037;-77
2022/06/03 04:42:41;;;;;;;6.25;4.57;;;;;;;14.15;69.90;100211.19;5088604;28;20043;-77
2022/06/03 04:45:13;;;;;;;7.32;4.15;;;;;;;14.13;69.88;100209.53;5085608;28;20497;-78
2022/06/03 04:47:44;;;;;;;13.43;4.07;;;;;;;14.17;69.81;100201.94;5088096;28;20040;-76
2022/06/03 04:50:47;;;;;;;6.18;3.90;;;;;;;14.23;69.73;100209.19;5087390;28;20081;-77
2022/06/03 04:53:53;;;;;;;7.18;4.32;;;;;;;14.26;69.81;100213.31;5091893;28;20097;-79
2022/06/03 04:56:30;;;;;;;8.60;4.35;;;;;;;14.33;70.06;100209.63;5090374;28;20557;-77
2022/06/03 04:59:17;;;;;;;8.02;4.93;;;;;;;14.40;69.73;100201.63;5090961;28;20473;-77
2022/06/03 05:02:20;;;;;;;6.57;4.13;;;;;;;14.50;70.01;100203.97;5091168;28;20040;-78
2022/06/03 05:05:06;;;;;;;10.30;4.07;;;;;;;14.56;69.60;100201.34;5092367;28;20036;-78
2022/06/03 05:07:52;;;;;;;5.90;4.15;;;;;;;14.64;69.38;100203.84;5090661;28;20064;-76
2022/06/03 05:10:55;;;;;;;7.00;4.50;;;;;;;14.75;69.11;100207.78;5091176;28;20119;-78
2022/06/03 05:13:39;;;;;;;7.18;4.22;;;;;;;14.91;68.24;100211.97;5092842;28;20181;-78
2022/06/03 05:16:23;;;;;;;8.13;4.60;;;;;;;15.14;67.43;100206.25;5094240;28;20051;-77
2022/06/03 05:18:51;;;;;;;6.38;4.05;;;;;;;15.31;66.95;100212.84;5090336;28;20443;-77
2022/06/03 05:21:39;;;;;;;8.10;4.30;;;;;;;15.33;66.96;100213.50;5087894;28;20041;-76
2022/06/03 05:24:43;;;;;;;7.13;4.45;;;;;;;15.35;67.18;100211.44;5086719;28;20036;-77
2022/06/03 05:27:09;;;;;;;7.30;4.90;;;;;;;15.36;67.34;100207.69;5086892;28;20127;-77
2022/06/03 05:30:02;;;;;;;8.35;4.10;;;;;;;15.44;67.15;100204.81;5088201;28;20055;-77
2022/06/03 05:32:45;;;;;;;4.93;3.97;;;;;;;15.45;67.31;100195.75;5083632;28;20078;-77
2022/06/03 05:35:48;;;;;;;6.10;3.90;;;;;;;15.57;67.32;100211.22;5073320;28;20044;-77
2022/06/03 05:38:37;;;;;;;6.75;4.38;;;;;;;15.63;67.65;100215.78;5074596;28;20542;-77
2022/06/03 05:44:24;;;;;;;5.95;4.43;;;;;;;15.78;67.78;100203.00;5076905;28;20089;-77
2022/06/03 05:47:06;;;;;;;8.55;4.95;;;;;;;15.84;68.38;100204.81;5073642;28;20107;-77
2022/06/03 05:49:55;;;;;;;6.60;5.05;;;;;;;15.90;68.78;100211.22;5073322;28;20036;-76
2022/06/03 05:52:32;;;;;;;5.43;4.53;;;;;;;15.97;68.78;100210.22;5072173;28;20418;-77
2022/06/03 05:55:10;;;;;;;8.95;4.90;;;;;;;16.06;67.58;100213.50;5075699;28;20036;-78
2022/06/03 05:58:01;;;;;;;10.68;5.10;;;;;;;16.09;67.82;100198.81;5075789;28;20135;-77
2022/06/03 06:00:47;;;;;;;8.93;4.97;;;;;;;16.20;67.82;100198.97;5074333;28;20037;-78
2022/06/03 06:03:41;;;;;;;6.63;4.22;;;;;;;16.37;66.89;100203.91;5074758;28;20086;-76
2022/06/03 06:06:36;;;;;;;8.75;4.28;;;;;;;16.45;66.86;100209.88;5073528;28;20039;-79
2022/06/03 06:09:39;;;;;;;5.20;4.70;;;;;;;16.57;66.34;100211.91;5069337;28;20056;-78
2022/06/03 06:12:24;;;;;;;8.02;4.50;;;;;;;16.63;66.04;100214.56;5075187;28;20465;-77
2022/06/03 06:14:52;;;;;;;7.28;4.78;;;;;;;16.68;65.63;100203.97;5076701;28;20058;-77
2022/06/03 06:17:51;;;;;;;6.28;4.80;;;;;;;16.75;65.15;100210.16;5074924;28;20123;-76
2022/06/03 06:20:43;;;;;;;5.93;4.38;;;;;;;16.83;65.74;100214.50;5076126;28;20036;-78
2022/06/03 06:23:38;;;;;;;7.65;4.60;;;;;;;16.94;65.33;100218.34;5074469;28;20032;-78
2022/06/03 06:26:35;;;;;;;6.57;4.93;;;;;;;17.04;64.17;100216.03;5075475;28;20074;-76
2022/06/03 06:29:19;;;;;;;8.23;4.28;;;;;;;17.12;63.67;100212.25;5075311;28;20047;-78
2022/06/03 06:31:47;;;;;;;8.77;5.00;;;;;;;17.14;63.40;100216.38;5075584;28;20043;-78
2022/06/03 06:34:38;;;;;;;7.45;4.57;;;;;;;17.21;63.78;100210.94;5075838;28;20508;-75
2022/06/03 06:37:48;;;;;;;9.13;5.13;;;;;;;17.29;64.24;100219.59;5071730;28;20538;-75
2022/06/03 06:40:25;;;;;;;6.03;5.13;;;;;;;17.32;64.15;100219.16;5071672;28;20052;-76
2022/06/03 06:43:24;;;;;;;5.20;4.65;;;;;;;17.41;63.16;100213.50;5072688;28;20067;-76
2022/06/03 06:45:59;;;;;;;6.45;5.15;;;;;;;17.52;63.59;100212.78;5054199;28;20036;-76
2022/06/03 06:49:02;;;;;;;9.02;5.10;;;;;;;17.58;62.61;100217.31;5072809;28;20033;-75
2022/06/03 06:51:36;;;;;;;7.88;4.68;;;;;;;17.70;62.88;100215.56;5072665;28;20098;-75
2022/06/03 06:54:12;;;;;;;6.85;4.30;;;;;;;17.83;63.79;100215.47;5072699;28;20036;-72
2022/06/03 06:56:48;;;;;;;5.60;4.68;;;;;;;17.95;63.57;100220.13;5072513;28;20082;-71
2022/06/03 06:59:23;;;;;;;7.68;5.05;;;;;;;18.05;61.96;100229.34;5072862;28;20055;-72
2022/06/03 07:01:58;;;;;;;5.78;4.32;;;;;;;18.18;61.62;100223.81;5072213;28;20055;-72
2022/06/03 07:04:28;;;;;;;5.80;5.13;;;;;;;18.37;61.75;100210.34;5072731;28;20529;-72
2022/06/03 07:07:06;;;;;;;5.75;4.93;;;;;;;18.36;60.64;100211.41;5071245;28;20508;-72
2022/06/03 07:09:53;;;;;;;9.00;5.20;;;;;;;18.50;61.34;100212.06;5072590;28;20120;-72
2022/06/03 07:12:25;;;;;;;8.95;5.60;;;;;;;18.62;62.36;100212.97;5072128;28;20071;-72
2022/06/03 07:14:57;;;;;;;7.85;4.65;;;;;;;18.75;61.56;100195.81;5071305;28;20059;-71
2022/06/03 07:20:29;;;;;;;6.15;4.85;;;;;;;19.06;58.79;100182.09;5070711;28;20074;-71
2022/06/03 07:23:02;;;;;;;7.25;4.72;;;;;;;19.24;59.24;100183.91;5071910;28;20111;-73
2022/06/03 07:25:39;;;;;;;5.65;5.03;;;;;;;19.29;58.57;100191.28;5072204;28;20036;-71
2022/06/03 07:28:07;;;;;;;5.47;4.38;;;;;;;19.41;57.63;100189.44;5072237;28;20053;-74
2022/06/03 07:31:13;;;;;;;7.82;5.10;;;;;;;19.60;57.47;100192.91;5072169;28;20044;-73
2022/06/03 07:33:47;;;;;;;8.18;5.28;;;;;;;19.53;57.35;100193.81;5064587;28;20044;-74
2022/06/03 07:36:33;;;;;;;6.32;4.72;;;;;;;19.42;59.52;100181.09;5072134;28;20060;-74
2022/06/03 07:39:21;;;;;;;7.95;4.65;;;;;;;19.50;59.49;100166.44;5072305;28;20036;-75
2022/06/03 07:41:52;;;;;;;;;;;;;;;19.62;59.55;100166.47;5070877;28;20513;-75
2022/06/03 07:44:25;;;;;;;6.45;4.60;;;;;;;19.78;59.82;100157.66;5072176;28;19965;-75
2022/06/03 07:47:00;;;;;;;8.27;4.82;;;;;;;19.96;58.89;100148.63;5072003;28;20033;-74
2022/06/03 07:49:29;;;;;;;7.95;5.10;;;;;;;20.14;57.73;100137.63;5054006;28;20033;-73
2022/06/03 07:52:00;;;;;;;6.85;5.00;;;;;;;19.91;56.93;100127.69;5071715;28;20059;-74
2022/06/03 07:54:30;;;;;;;6.43;3.97;;;;;;;20.01;56.96;100138.69;5071808;28;20085;-73
2022/06/03 07:57:19;;;;;;;9.77;4.78;;;;;;;20.05;55.55;100136.38;5071411;28;20032;-74
2022/06/03 07:59:44;;;;;;;7.93;4.75;;;;;;;20.34;56.02;100129.09;5070636;28;20066;-74
2022/06/03 08:02:16;;;;;;;5.60;4.25;;;;;;;20.55;56.23;100119.56;5070308;28;20025;-73
2022/06/03 08:04:43;;;;;;;5.82;4.07;;;;;;;20.72;54.63;100120.41;5071802;28;20038;-73
2022/06/03 08:13:04;;;;;;;6.57;4.32;;;;;;;21.11;54.06;100123.25;5071455;28;20089;-73
2022/06/03 08:15:35;;;;;;;8.65;4.50;;;;;;;21.07;52.20;100130.25;5070227;28;20037;-75
2022/06/03 08:18:05;;;;;;;4.22;3.83;;;;;;;21.13;53.14;100134.69;5071677;28;20066;-74
2022/06/03 08:20:35;;;;;;;9.27;4.10;;;;;;;21.25;52.43;100132.69;5071415;28;20051;-74
2022/06/03 08:23:02;;;;;;;7.85;3.83;;;;;;;21.40;52.10;100130.28;5071374;28;20068;-73
2022/06/03 08:25:30;;;;;;;6.35;4.15;;;;;;;21.51;52.95;100116.88;5071331;28;20040;-74
2022/06/03 08:27:58;;;;;;;7.80;4.28;;;;;;;21.59;52.79;100113.75;5071502;28;20133;-74
2022/06/03 08:30:26;;;;;;;6.30;3.95;;;;;;;21.80;52.63;100117.56;5071399;28;20037;-74
2022/06/03 08:32:55;;;;;;;9.20;4.28;;;;;;;21.74;52.29;100116.66;5069909;28;20048;-76
2022/06/03 08:35:28;;;;;;;4.90;3.92;;;;;;;21.81;52.46;100105.66;5071303;28;20068;-74
2022/06/03 08:37:58;;;;;;;9.35;4.40;;;;;;;21.88;51.99;100106.28;5069899;28;20140;-75
2022/06/03 08:41:11;;;;;;;5.30;4.30;;;;;;;22.21;51.81;100108.09;5071184;28;20032;-73
2022/06/03 08:43:55;;;;;;;6.85;4.45;;;;;;;22.28;51.01;100105.19;5071089;28;20153;-74
2022/06/03 08:46:26;;;;;;;8.30;4.25;;;;;;;22.35;50.57;100103.91;5069839;28;20040;-74
2022/06/03 08:49:01;;;;;;;9.30;4.15;;;;;;;22.64;50.59;100104.50;5071277;28;20032;-74
2022/06/03 08:51:38;;;;;;;5.55;4.55;;;;;;;22.50;50.26;100108.72;5071079;28;20058;-74
2022/06/03 08:54:26;;;;;;;7.07;4.63;;;;;;;22.68;50.35;100104.81;5071095;28;20102;-73
2022/06/03 08:56:57;;;;;;;6.47;4.47;;;;;;;22.88;49.91;100094.16;5071181;28;20043;-74
2022/06/03 08:59:36;;;;;;;7.55;4.35;;;;;;;22.99;48.75;100095.09;5071101;28;20041;-75
2022/06/03 09:02:09;;;;;;;6.63;4.50;;;;;;;23.10;49.25;100098.72;5070876;28;20469;-74
2022/06/03 09:04:44;;;;;;;8.02;4.28;;;;;;;23.38;48.58;100089.41;5071138;28;20124;-75
2022/06/03 09:07:30;;;;;;;5.57;3.67;;;;;;;23.62;48.56;100089.88;5071232;28;20036;-74
2022/06/03 09:10:13;;;;;;;5.28;3.80;;;;;;;23.83;47.60;100086.19;5074818;28;20044;-74
2022/06/03 09:12:41;;;;;;;6.13;3.30;;;;;;;24.18;46.78;100079.22;5074570;28;20032;-74
2022/06/03 09:15:11;;;;;;;4.82;3.70;;;;;;;24.49;46.70;100064.66;5074699;28;20043;-74
2022/06/03 09:17:48;;;;;;;4.85;4.32;;;;;;;24.29;46.71;100064.59;5074561;28;20456;-75
2022/06/03 09:20:28;;;;;;;;;;;;;;;24.46;46.25;100064.41;5073875;28;20036;-74
2022/06/03 09:23:13;;;;;;;4.05;3.65;;;;;;;24.54;45.89;100056.50;5072966;28;19920;-74
2022/06/03 09:25:47;;;;;;;5.40;4.20;;;;;;;24.60;46.16;100068.22;5074306;28;20059;-75
2022/06/03 09:28:19;;;;;;;5.80;3.60;;;;;;;24.58;45.79;100067.66;5073266;28;20040;-76
2022/06/03 09:30:46;;;;;;;3.83;3.45;;;;;;;24.94;45.05;100071.25;5074716;28;20036;-75
2022/06/03 09:33:15;;;;;;;4.80;3.70;;;;;;;25.29;44.74;100075.88;5074114;28;20066;-76
2022/06/03 09:35:45;;;;;;;4.43;3.88;;;;;;;25.58;43.75;100065.22;5073083;28;20047;-75
2022/06/03 09:38:13;;;;;;;8.77;3.78;;;;;;;25.85;44.27;100069.53;5072945;28;20083;-74
2022/06/03 09:40:44;;;;;;;4.15;3.75;;;;;;;26.00;43.19;100076.81;5074350;28;20114;-75
2022/06/03 09:43:24;;;;;;;5.95;3.63;;;;;;;26.40;42.45;100084.00;5074180;28;20033;-75
2022/06/03 09:45:55;;;;;;;8.63;3.90;;;;;;;26.87;42.25;100079.91;5074112;28;20064;-74
2022/06/03 09:48:29;;;;;;;7.47;3.92;;;;;;;26.82;40.68;100077.22;5074139;28;20115;-75
2022/06/03 09:50:58;;;;;;;5.68;4.00;;;;;;;26.27;42.54;100082.69;5074055;28;20366;-75
2022/06/03 09:53:30;;;;;;;6.45;3.75;;;;;;;26.47;43.09;100084.53;5073685;28;20082;-74
2022/06/03 09:56:00;;;;;;;5.50;4.13;;;;;;;26.47;42.98;100079.06;5073993;28;20068;-75
2022/06/03 09:58:30;;;;;;;6.68;3.75;;;;;;;27.00;42.10;100080.06;5074022;28;20036;-74
2022/06/03 10:00:58;;;;;;;5.18;3.47;;;;;;;27.41;41.26;100081.63;5073963;28;20166;-76
2022/06/03 10:03:25;;;;;;;5.38;4.05;;;;;;;27.65;40.63;100079.75;5072450;28;20040;-74
2022/06/03 10:05:55;;;;;;;4.97;3.50;;;;;;;27.62;40.60;100082.22;5074037;28;20405;-75
2022/06/03 10:08:24;;;;;;;7.18;3.63;;;;;;;27.57;41.56;100091.31;5073745;28;20033;-75
2022/06/03 10:13:39;;;;;;;5.68;3.45;;;;;;;27.69;39.45;100082.72;5073314;28;20075;-76
2022/06/03 10:16:07;;;;;;;5.28;3.60;;;;;;;27.78;39.56;100081.00;5073554;28;20556;-75
2022/06/03 10:18:43;;;;;;;6.75;3.92;;;;;;;27.60;39.73;100082.53;5073464;28;20051;-75
2022/06/03 10:21:08;;;;;;;3.97;3.58;;;;;;;27.83;40.22;100081.72;5073470;28;20078;-75
2022/06/03 10:23:42;;;;;;;5.38;4.30;;;;;;;27.72;40.42;100088.47;5073308;28;20463;-77
2022/06/03 10:26:08;;;;;;;8.27;3.60;;;;;;;28.32;40.24;100088.00;5073342;28;20033;-74
2022/06/03 10:28:36;;;;;;;4.37;3.40;;;;;;;28.68;38.80;100088.31;5073496;28;20508;-74
2022/06/03 10:31:15;;;;;;;5.22;3.45;;;;;;;28.92;38.20;100082.75;5073362;28;20033;-74
2022/06/03 10:33:51;;;;;;;5.10;4.03;;;;;;;28.75;37.66;100090.66;5072306;28;20055;-75
2022/06/03 10:36:17;;;;;;;5.47;3.45;;;;;;;28.70;39.47;100079.81;5073231;28;20032;-74
2022/06/03 10:38:48;;;;;;;5.10;3.58;;;;;;;29.45;38.16;100077.72;5073163;28;20509;-75
2022/06/03 10:41:14;;;;;;;4.82;3.50;;;;;;;29.99;37.31;100076.16;5073127;28;20044;-74
2022/06/03 10:43:42;;;;;;;6.15;4.00;;;;;;;29.89;35.80;100081.84;5054991;28;20029;-74
2022/06/03 10:46:15;;;;;;;5.20;4.13;;;;;;;30.43;35.74;100082.91;5071867;28;20040;-76
2022/06/03 10:48:41;;;;;;;10.40;3.83;;;;;;;30.37;35.13;100086.88;5073211;28;20563;-75
2022/06/03 10:51:19;;;;;;;4.03;3.42;;;;;;;30.84;34.86;100095.72;5071748;28;20028;-75
2022/06/03 11:02:49;;;;;;;5.00;3.63;;;;;;;29.11;37.45;100096.44;5072434;28;20028;-75
2022/06/03 11:05:22;;;;;;;6.07;3.85;;;;;;;28.53;38.70;100088.53;5072613;28;20482;-75
2022/06/03 11:08:16;;;;;;;5.65;3.80;;;;;;;28.08;40.96;100074.31;5072657;28;20059;-75
2022/06/03 11:10:53;;;;;;;6.70;3.83;;;;;;;27.81;41.11;100077.69;5066974;28;20052;-74
2022/06/03 11:13:47;;;;;;;7.82;3.63;;;;;;;27.40;42.48;100078.09;5072177;28;20111;-75
2022/06/03 11:16:22;;;;;;;7.80;3.55;;;;;;;27.27;42.66;100079.59;5066726;28;20080;-74
2022/06/03 11:18:48;;;;;;;4.90;3.55;;;;;;;27.34;42.04;100065.56;5072686;28;20493;-75
2022/06/03 11:21:24;;;;;;;4.05;3.42;;;;;;;27.31;42.69;100063.41;5072275;28;20127;-74
2022/06/03 11:23:52;;;;;;;9.75;3.33;;;;;;;27.30;42.31;100039.91;5070927;28;20493;-75
2022/06/03 11:26:18;;;;;;;4.53;3.40;;;;;;;27.16;42.70;100023.38;5072375;28;20028;-75
2022/06/03 11:28:48;;;;;;;4.43;3.45;;;;;;;26.90;44.17;100017.28;5072196;28;20512;-74
2022/06/03 11:31:26;;;;;;;7.10;4.03;;;;;;;26.75;44.37;100020.97;5071960;28;20040;-74
2022/06/03 11:34:05;;;;;;;5.03;3.85;;;;;;;26.94;42.74;100026.56;5072124;28;20128;-74
2022/06/03 11:36:44;;;;;;;7.25;3.88;;;;;;;27.09;43.03;100022.88;5072058;28;20051;-73
2022/06/03 11:39:28;;;;;;;3.90;3.47;;;;;;;27.26;43.21;100017.00;5072163;28;20040;-75
2022/06/03 11:41:59;;;;;;;4.30;3.60;;;;;;;27.35;42.78;100003.50;5071798;28;20130;-75
2022/06/03 11:44:42;;;;;;;7.63;4.68;;;;;;;27.66;41.80;99999.31;5072281;28;20176;-75
2022/06/03 11:47:19;;;;;;;6.00;4.22;;;;;;;27.55;42.10;100001.34;5070728;28;20032;-75
2022/06/03 11:49:45;;;;;;;5.05;3.72;;;;;;;27.68;40.97;99991.63;5072001;28;20036;-75
2022/06/03 11:52:11;;;;;;;4.78;4.10;;;;;;;27.60;40.63;99995.00;5071551;28;20040;-75
2022/06/03 11:54:38;;;;;;;6.75;4.10;;;;;;;27.79;40.13;99995.88;5071839;28;20036;-75
2022/06/03 11:57:05;;;;;;;6.00;4.32;;;;;;;27.02;41.44;100001.31;5071775;28;20056;-75
2022/06/03 11:59:50;;;;;;;6.22;3.90;;;;;;;27.56;42.41;100002.16;5071953;28;20129;-75
2022/06/03 12:02:21;;;;;;;8.65;4.13;;;;;;;27.65;42.45;99992.22;5070432;28;20051;-75
2022/06/03 12:04:57;;;;;;;5.03;4.00;;;;;;;27.90;41.95;100003.94;5071840;28;20025;-75
2022/06/03 12:07:28;;;;;;;5.10;3.97;;;;;;;27.75;41.93;100002.22;5071885;28;20123;-76
2022/06/03 12:10:15;;;;;;;7.20;4.22;;;;;;;27.85;42.69;100008.41;5070533;28;20108;-76
2022/06/03 12:15:31;;;;;;;5.28;3.83;;;;;;;28.13;42.42;99998.41;5071673;28;20042;-75
2022/06/03 12:18:06;;;;;;;5.20;4.63;;;;;;;28.23;40.60;100005.66;5071686;28;20040;-76
2022/06/03 12:20:31;;;;;;;6.05;4.20;;;;;;;27.78;43.31;100005.19;5070340;28;20041;-75
2022/06/03 12:23:20;;;;;;;6.68;4.18;;;;;;;27.95;42.53;100012.09;5070047;28;20066;-75
2022/06/03 12:25:57;;;;;;;5.68;3.95;;;;;;;27.83;42.05;100016.06;5070353;28;20444;-76
2022/06/03 12:28:27;;;;;;;6.57;4.00;;;;;;;27.66;43.03;100020.38;5071732;28;20047;-76
2022/06/03 12:30:59;;;;;;;6.18;4.00;;;;;;;27.63;43.97;100023.69;5071525;28;20040;-75
2022/06/03 12:33:33;;;;;;;6.55;4.22;;;;;;;27.63;44.22;100026.41;5071243;28;20051;-75
2022/06/03 12:36:05;;;;;;;6.90;4.85;;;;;;;27.26;43.03;100044.34;5071438;28;20465;-75
2022/06/03 12:38:43;;;;;;;7.38;4.20;;;;;;;27.29;44.09;100049.22;5070372;28;20430;-75
2022/06/03 12:41:08;;;;;;;7.28;4.10;;;;;;;27.13;44.61;100056.75;5071764;28;20074;-76
2022/06/03 12:43:46;;;;;;;5.85;4.30;;;;;;;26.89;45.65;100055.84;5072211;28;20040;-75
2022/06/03 12:46:34;;;;;;;7.80;4.32;;;;;;;26.84;45.42;100056.69;5075429;28;20040;-75
2022/06/03 12:48:59;;;;;;;6.72;4.10;;;;;;;26.68;46.12;100053.25;5075363;28;20474;-75
2022/06/03 12:51:33;;;;;;;5.43;4.22;;;;;;;26.64;45.47;100051.38;5074967;28;20036;-76
2022/06/03 12:54:14;;;;;;;5.35;4.30;;;;;;;26.60;46.42;100053.84;5075097;28;20507;-75
2022/06/03 12:57:06;;;;;;;5.28;4.00;;;;;;;26.74;49.14;100064.97;5073951;28;20049;-75
2022/06/03 12:59:52;;;;;;;7.22;4.57;;;;;;;26.84;47.97;100069.53;5074347;28;20071;-75
2022/06/03 13:02:26;;;;;;;4.85;4.25;;;;;;;26.77;46.13;100073.41;5073532;28;20470;-74
2022/06/03 13:04:53;;;;;;;13.23;5.45;;;;;;;26.79;46.26;100079.38;5073806;28;20043;-74
2022/06/03 13:07:25;;;;;;;7.82;4.85;;;;;;;26.84;46.58;100077.72;5075006;28;20032;-75
2022/06/03 13:10:03;;;;;;;8.25;4.60;;;;;;;26.76;46.14;100079.97;5073727;28;20107;-74
2022/06/03 13:12:29;;;;;;;6.32;4.38;;;;;;;26.77;47.52;100087.06;5074596;28;20432;-75
2022/06/03 13:14:55;;;;;;;7.55;4.60;;;;;;;26.87;46.79;100074.44;5075218;28;20103;-75
2022/06/03 13:17:55;;;;;;;6.22;4.43;;;;;;;26.76;46.54;100076.41;5074797;28;20075;-74
2022/06/03 13:21:08;;;;;;;5.78;4.10;;;;;;;27.07;46.35;100077.03;5074557;28;20115;-76
2022/06/03 13:23:42;;;;;;;6.72;4.40;;;;;;;26.94;45.02;100077.66;5074283;28;20024;-74
2022/06/03 13:26:19;;;;;;;7.60;4.85;;;;;;;26.93;46.24;100078.72;5073448;28;20039;-75
2022/06/03 13:28:46;;;;;;;10.00;4.78;;;;;;;26.80;45.13;100077.50;5074544;28;20040;-76
2022/06/03 13:31:33;;;;;;;6.28;4.53;;;;;;;27.03;45.40;100081.41;5074457;28;20032;-75
2022/06/03 13:33:58;;;;;;;8.40;4.38;;;;;;;26.83;46.82;100078.84;5074411;28;20044;-74
2022/06/03 13:36:33;;;;;;;7.90;4.78;;;;;;;26.78;46.54;100080.50;5074437;28;20029;-75
2022/06/03 13:38:59;;;;;;;9.60;5.30;;;;;;;26.74;45.74;100078.63;5074508;28;20074;-74
2022/06/03 13:44:49;;;;;;;9.68;4.57;;;;;;;26.73;46.76;100087.91;5074390;28;20519;-75
2022/06/03 13:47:22;;;;;;;5.47;4.60;;;;;;;26.68;46.43;100090.69;5074200;28;20415;-75
2022/06/03 13:50:12;;;;;;;8.45;5.28;;;;;;;26.35;46.21;100095.78;5056249;28;20036;-75
2022/06/03 13:52:48;;;;;;;6.53;4.22;;;;;;;26.10;46.90;100093.97;5073836;28;20029;-75
2022/06/03 13:55:33;;;;;;;5.40;4.63;;;;;;;26.09;46.48;100094.25;5073832;28;20385;-74
2022/06/03 13:58:18;;;;;;;6.05;4.78;;;;;;;25.96;46.73;100092.94;5073920;28;20090;-74
2022/06/03 14:00:50;;;;;;;6.18;4.55;;;;;;;26.03;47.31;100089.91;5058539;28;20040;-75
2022/06/03 14:03:25;;;;;;;8.60;4.85;;;;;;;25.96;47.17;100098.41;5053692;28;20028;-75
2022/06/03 14:05:50;;;;;;;10.88;4.78;;;;;;;25.89;47.88;100098.69;5053850;28;20037;-74
2022/06/03 14:08:25;;;;;;;7.95;4.68;;;;;;;25.85;48.89;100094.06;5052735;28;20389;-76
2022/06/03 14:11:06;;;;;;;5.50;4.13;;;;;;;25.76;47.82;100087.56;5052494;28;20041;-74
2022/06/03 14:13:49;;;;;;;7.28;4.75;;;;;;;25.76;49.22;100087.56;5053485;28;20112;-75
2022/06/03 14:16:37;;;;;;;13.48;5.43;;;;;;;25.70;49.76;100084.00;5053800;28;20048;-75
2022/06/03 14:19:12;;;;;;;4.95;4.45;;;;;;;25.70;48.13;100084.00;5053475;28;20488;-74
2022/06/03 14:21:37;;;;;;;7.07;4.70;;;;;;;25.68;49.69;100077.97;5053278;28;20029;-75
2022/06/03 14:24:14;;;;;;;6.03;5.45;;;;;;;25.69;48.19;100077.72;5052173;28;20513;-75
2022/06/03 14:26:51;;;;;;;8.25;4.88;;;;;;;25.72;47.97;100073.63;5053543;28;20133;-75
2022/06/03 14:29:34;;;;;;;;;;;;;;;25.67;47.88;100074.44;5053974;28;20116;-76
2022/06/03 14:32:06;;;;;;;5.40;4.38;;;;;;;25.44;48.49;100066.88;5051737;28;20000;-75
2022/06/03 14:34:38;;;;;;;5.93;5.03;;;;;;;25.47;48.82;100077.22;5052063;28;20041;-75
2022/06/03 14:37:10;;;;;;;6.70;4.68;;;;;;;25.54;49.03;100079.66;5053245;28;20375;-76
2022/06/03 14:39:37;;;;;;;8.93;4.75;;;;;;;25.48;50.42;100075.31;5053193;28;20464;-75
2022/06/03 14:42:15;;;;;;;7.78;4.82;;;;;;;25.46;50.08;100078.31;5051570;28;20461;-76
2022/06/03 14:44:43;;;;;;;11.07;4.97;;;;;;;25.41;48.49;100089.22;5053115;28;20075;-75
2022/06/03 14:47:19;;;;;;;6.63;4.53;;;;;;;25.46;48.77;100078.31;5052889;28;20037;-76
2022/06/03 14:49:56;;;;;;;7.32;4.50;;;;;;;25.59;49.28;100066.84;5053102;28;20037;-76
2022/06/03 14:52:28;;;;;;;7.10;4.32;;;;;;;25.71;50.21;100061.09;5051343;28;20040;-75
2022/06/03 14:55:10;;;;;;;8.68;5.10;;;;;;;25.83;49.73;100061.63;5051641;28;20490;-76
2022/06/03 14:57:41;;;;;;;6.65;4.65;;;;;;;25.91;49.52;100057.50;5052967;28;20071;-76
2022/06/03 15:00:30;;;;;;;6.72;4.88;;;;;;;25.95;49.01;100053.09;5051484;28;20045;-75
2022/06/03 15:03:08;;;;;;;7.88;5.18;;;;;;;25.84;48.16;100062.44;5052406;28;20025;-75
2022/06/03 15:05:56;;;;;;;5.15;4.65;;;;;;;25.81;48.44;100063.78;5052088;28;20070;-75
2022/06/03 15:08:27;;;;;;;8.85;5.70;;;;;;;25.89;48.88;100059.69;5052736;28;20083;-76
2022/06/03 15:11:05;;;;;;;10.88;6.80;;;;;;;25.90;49.30;100064.88;5052569;28;20124;-75
2022/06/03 15:13:32;;;;;;;5.90;5.30;;;;;;;26.08;50.60;100055.25;5052346;28;20032;-77
2022/06/03 15:15:57;;;;;;;7.13;5.68;;;;;;;26.15;50.03;100058.47;5051033;28;20513;-76
2022/06/03 15:18:27;;;;;;;7.80;6.18;;;;;;;26.14;49.96;100058.75;5052592;28;20045;-75
2022/06/03 15:21:22;;;;;;;10.60;6.47;;;;;;;26.16;49.94;100062.03;5051119;28;20437;-76
2022/06/03 15:23:55;;;;;;;6.10;5.28;;;;;;;26.22;48.41;100058.19;5052256;28;20040;-76
2022/06/03 15:26:25;;;;;;;7.53;5.63;;;;;;;26.16;48.46;100053.84;5051054;28;20037;-74
2022/06/03 15:28:57;;;;;;;5.53;5.03;;;;;;;25.95;48.69;100044.91;5052557;28;20041;-76
2022/06/03 15:31:46;;;;;;;6.35;4.95;;;;;;;25.94;48.69;100041.38;5051203;28;20067;-75
2022/06/03 15:34:13;;;;;;;6.75;5.20;;;;;;;25.91;49.52;100030.22;5053428;28;20087;-75
2022/06/03 15:36:45;;;;;;;11.35;6.80;;;;;;;25.93;49.21;100036.19;5050991;28;20371;-74
2022/06/03 15:39:25;;;;;;;7.30;6.40;;;;;;;25.97;49.15;100029.91;5052472;28;20095;-75
2022/06/03 15:41:53;;;;;;;8.07;5.88;;;;;;;26.04;48.31;100032.31;5051892;28;20028;-75
2022/06/03 15:44:40;;;;;;;8.98;5.80;;;;;;;25.63;48.57;100024.28;5052198;28;20041;-74
2022/06/03 15:47:17;;;;;;;8.38;6.10;;;;;;;25.48;49.17;100018.06;5051887;28;20037;-75
2022/06/03 15:50:00;;;;;;;9.05;5.65;;;;;;;25.65;50.05;100030.28;5052075;28;20047;-74
2022/06/03 15:52:27;;;;;;;10.05;5.68;;;;;;;25.72;50.08;100016.34;5051626;28;20106;-74
2022/06/03 15:54:57;;;;;;;;;;;;;;;25.70;49.54;100019.34;5052347;28;20059;-75
2022/06/03 15:57:44;;;;;;;8.35;6.80;;;;;;;25.64;49.32;100016.94;5050562;28;19924;-75
2022/06/03 16:00:15;;;;;;;7.78;6.03;;;;;;;25.67;49.18;100019.91;5051886;28;20037;-74
2022/06/03 16:02:53;;;;;;;17.40;12.52;;;;;;;25.67;49.21;100009.00;5051590;28;20055;-75
2022/06/03 16:05:26;;;;;;;7.90;6.25;;;;;;;25.61;49.05;100012.00;5051696;28;20040;-76
2022/06/03 16:08:06;;;;;;;9.18;7.05;;;;;;;25.44;49.98;100007.72;5051795;28;20136;-75
2022/06/03 16:10:40;;;;;;;7.85;5.28;;;;;;;25.54;49.25;99997.84;5051847;28;20574;-75
2022/06/03 16:13:18;;;;;;;9.23;5.63;;;;;;;25.44;49.37;100007.72;5050143;28;20033;-75
2022/06/03 16:16:18;;;;;;;8.20;5.15;;;;;;;25.38;50.28;100010.72;5051590;28;20040;-75
2022/06/03 16:19:01;;;;;;;7.45;5.18;;;;;;;25.16;50.89;100020.03;5051730;28;20044;-76
2022/06/03 16:21:47;;;;;;;8.43;5.22;;;;;;;25.10;50.68;100026.59;5050076;28;20059;-76
2022/06/03 16:24:31;;;;;;;8.82;5.53;;;;;;;24.97;51.02;100031.72;5051744;28;20091;-76
2022/06/03 16:27:26;;;;;;;9.45;5.65;;;;;;;24.93;51.35;100031.47;5051515;28;20120;-75
2022/06/03 16:30:04;;;;;;;5.65;5.05;;;;;;;24.86;51.48;100031.75;5050568;28;20091;-76
2022/06/03 16:32:37;;;;;;;9.25;5.43;;;;;;;24.87;51.54;100038.00;5051147;28;20095;-76
2022/06/03 16:35:24;;;;;;;7.50;5.40;;;;;;;24.89;51.60;100039.38;5050618;28;20032;-75
2022/06/03 16:38:03;;;;;;;7.30;4.82;;;;;;;24.85;51.62;100043.75;5051650;28;20041;-75
2022/06/03 16:40:45;;;;;;;11.20;5.10;;;;;;;24.85;51.88;100048.38;5051548;28;20490;-76
2022/06/03 16:43:16;;;;;;;11.48;5.93;;;;;;;24.61;51.65;100051.63;5049970;28;20043;-77
2022/06/03 16:46:20;;;;;;;9.25;5.57;;;;;;;24.64;51.71;100048.34;5051322;28;20060;-76
2022/06/03 16:49:13;;;;;;;6.88;5.13;;;;;;;24.49;52.32;100036.63;5050485;28;20049;-76
2022/06/03 16:51:49;;;;;;;6.82;4.97;;;;;;;24.60;52.39;100051.91;5051076;28;20044;-75
2022/06/03 16:54:23;;;;;;;6.07;4.80;;;;;;;24.55;52.99;100051.88;5051364;28;20037;-75
2022/06/03 16:56:58;;;;;;;7.95;5.20;;;;;;;24.61;53.17;100059.78;5051499;28;20037;-75
2022/06/03 16:59:23;;;;;;;8.70;5.25;;;;;;;24.52;53.33;100060.59;5051415;28;20081;-75
2022/06/03 17:01:52;;;;;;;6.40;5.13;;;;;;;24.67;53.19;100059.78;5051027;28;20037;-75
2022/06/03 17:04:26;;;;;;;8.93;5.97;;;;;;;24.66;53.63;100060.88;5051449;28;20033;-76
2022/06/03 17:06:58;;;;;;;8.55;5.07;;;;;;;24.54;53.89;100056.50;5051277;28;20383;-76